sensor_id;sensor_type;location;lat;lon;timestamp;pressure;altitude;pressure_sealevel;temperature;humidity
1401;BME280;46518;48.842;8.926;2023-04-10T00:00:12;97699.97;;;8.03;59.66
1401;BME280;46518;48.842;8.926;2023-04-10T00:02:41;97705.06;;;7.97;60.00
1401;BME280;46518;48.842;8.926;2023-04-10T00:05:11;97722.16;;;8.07;59.75
1401;BME280;46518;48.842;8.926;2023-04-10T00:07:41;97708.06;;;8.01;59.95
1401;BME280;46518;48.842;8.926;2023-04-10T00:10:10;97704.91;;;7.92;60.09
1401;BME280;46518;48.842;8.926;2023-04-10T00:12:39;97713.25;;;8.08;60.03
1401;BME280;46518;48.842;8.926;2023-04-10T00:15:08;97684.03;;;7.79;59.72
1401;BME280;46518;48.842;8.926;2023-04-10T00:17:37;97689.66;;;7.83;60.42
1401;BME280;46518;48.842;8.926;2023-04-10T00:20:07;97705.84;;;7.73;61.25
1401;BME280;46518;48.842;8.926;2023-04-10T00:22:35;97690.66;;;7.56;61.78
1401;BME280;46518;48.842;8.926;2023-04-10T00:25:06;97675.56;;;7.52;61.98
1401;BME280;46518;48.842;8.926;2023-04-10T00:27:35;97668.59;;;7.39;62.32
1401;BME280;46518;48.842;8.926;2023-04-10T00:30:04;97670.56;;;7.44;62.28
1401;BME280;46518;48.842;8.926;2023-04-10T00:32:33;97683.38;;;7.59;62.22
1401;BME280;46518;48.842;8.926;2023-04-10T00:35:02;97681.94;;;7.63;62.07
1401;BME280;46518;48.842;8.926;2023-04-10T00:37:31;97661.84;;;7.56;61.77
1401;BME280;46518;48.842;8.926;2023-04-10T00:39:59;97659.00;;;7.58;61.46
1401;BME280;46518;48.842;8.926;2023-04-10T00:42:29;97680.88;;;7.70;61.51
1401;BME280;46518;48.842;8.926;2023-04-10T00:44:58;97669.97;;;7.73;60.83
1401;BME280;46518;48.842;8.926;2023-04-10T00:47:27;97676.69;;;7.63;60.90
1401;BME280;46518;48.842;8.926;2023-04-10T00:49:56;97678.69;;;7.67;61.68
1401;BME280;46518;48.842;8.926;2023-04-10T00:52:25;97674.25;;;7.68;61.19
1401;BME280;46518;48.842;8.926;2023-04-10T00:54:54;97680.97;;;7.57;61.03
1401;BME280;46518;48.842;8.926;2023-04-10T00:57:23;97645.22;;;7.38;61.54
1401;BME280;46518;48.842;8.926;2023-04-10T00:59:54;97679.44;;;7.43;61.76
1401;BME280;46518;48.842;8.926;2023-04-10T01:02:23;97652.19;;;7.19;62.46
1401;BME280;46518;48.842;8.926;2023-04-10T01:04:53;97675.00;;;7.43;62.10
1401;BME280;46518;48.842;8.926;2023-04-10T01:07:29;97656.75;;;7.30;62.11
1401;BME280;46518;48.842;8.926;2023-04-10T01:10:12;97664.88;;;7.22;61.87
1401;BME280;46518;48.842;8.926;2023-04-10T01:12:53;97669.28;;;7.21;61.87
1401;BME280;46518;48.842;8.926;2023-04-10T01:15:27;97695.28;;;7.16;62.54
1401;BME280;46518;48.842;8.926;2023-04-10T01:18:03;97687.59;;;7.21;62.44
1401;BME280;46518;48.842;8.926;2023-04-10T01:20:37;97680.69;;;7.02;62.92
1401;BME280;46518;48.842;8.926;2023-04-10T01:23:41;97658.97;;;6.88;63.20
1401;BME280;46518;48.842;8.926;2023-04-10T01:26:14;97683.50;;;6.94;63.60
1401;BME280;46518;48.842;8.926;2023-04-10T01:28:51;97679.47;;;6.98;63.82
1401;BME280;46518;48.842;8.926;2023-04-10T01:31:26;97667.25;;;6.78;63.85
1401;BME280;46518;48.842;8.926;2023-04-10T01:34:01;97667.09;;;6.73;64.04
1401;BME280;46518;48.842;8.926;2023-04-10T01:36:35;97675.09;;;6.85;64.63
1401;BME280;46518;48.842;8.926;2023-04-10T01:39:07;97659.22;;;6.73;64.93
1401;BME280;46518;48.842;8.926;2023-04-10T01:41:38;97656.84;;;6.72;64.74
1401;BME280;46518;48.842;8.926;2023-04-10T01:44:14;97659.03;;;6.75;64.65
1401;BME280;46518;48.842;8.926;2023-04-10T01:46:43;97658.25;;;6.74;64.49
1401;BME280;46518;48.842;8.926;2023-04-10T01:49:14;97665.59;;;6.90;64.08
1401;BME280;46518;48.842;8.926;2023-04-10T01:51:44;97666.44;;;6.84;64.44
1401;BME280;46518;48.842;8.926;2023-04-10T01:54:14;97680.38;;;6.72;64.97
1401;BME280;46518;48.842;8.926;2023-04-10T01:56:44;97675.09;;;6.78;64.87
1401;BME280;46518;48.842;8.926;2023-04-10T01:59:16;97670.91;;;6.77;65.12
1401;BME280;46518;48.842;8.926;2023-04-10T02:01:45;97651.31;;;6.21;66.19
1401;BME280;46518;48.842;8.926;2023-04-10T02:04:16;97679.69;;;6.11;67.65
1401;BME280;46518;48.842;8.926;2023-04-10T02:06:50;97662.00;;;6.13;68.14
1401;BME280;46518;48.842;8.926;2023-04-10T02:09:30;97656.16;;;6.11;67.36
1401;BME280;46518;48.842;8.926;2023-04-10T02:12:05;97673.44;;;6.25;67.20
1401;BME280;46518;48.842;8.926;2023-04-10T02:14:38;97662.00;;;6.20;66.87
1401;BME280;46518;48.842;8.926;2023-04-10T02:17:09;97678.41;;;6.54;66.51
1401;BME280;46518;48.842;8.926;2023-04-10T02:19:42;97651.34;;;6.01;67.20
1401;BME280;46518;48.842;8.926;2023-04-10T02:22:14;97655.34;;;5.71;68.82
1401;BME280;46518;48.842;8.926;2023-04-10T02:24:44;97635.66;;;5.61;69.20
1401;BME280;46518;48.842;8.926;2023-04-10T02:27:13;97645.28;;;5.81;68.94
1401;BME280;46518;48.842;8.926;2023-04-10T02:29:43;97658.00;;;5.97;68.44
1401;BME280;46518;48.842;8.926;2023-04-10T02:32:12;97655.16;;;6.12;67.82
1401;BME280;46518;48.842;8.926;2023-04-10T02:34:45;97648.72;;;6.15;67.09
1401;BME280;46518;48.842;8.926;2023-04-10T02:37:13;97682.91;;;6.20;67.20
1401;BME280;46518;48.842;8.926;2023-04-10T02:39:42;97680.88;;;6.15;67.26
1401;BME280;46518;48.842;8.926;2023-04-10T02:42:11;97681.09;;;6.14;66.84
1401;BME280;46518;48.842;8.926;2023-04-10T02:44:40;97686.94;;;6.02;66.68
1401;BME280;46518;48.842;8.926;2023-04-10T02:47:11;97667.81;;;5.75;66.26
1401;BME280;46518;48.842;8.926;2023-04-10T02:49:43;97663.16;;;5.64;67.00
1401;BME280;46518;48.842;8.926;2023-04-10T02:52:14;97669.19;;;5.51;67.67
1401;BME280;46518;48.842;8.926;2023-04-10T02:54:44;97662.72;;;5.34;68.06
1401;BME280;46518;48.842;8.926;2023-04-10T02:57:14;97676.03;;;5.52;68.01
1401;BME280;46518;48.842;8.926;2023-04-10T02:59:43;97668.78;;;5.48;68.49
1401;BME280;46518;48.842;8.926;2023-04-10T03:02:14;97666.41;;;5.59;68.04
1401;BME280;46518;48.842;8.926;2023-04-10T03:04:43;97663.75;;;5.39;68.62
1401;BME280;46518;48.842;8.926;2023-04-10T03:07:12;97656.72;;;5.27;69.18
1401;BME280;46518;48.842;8.926;2023-04-10T03:09:41;97653.44;;;5.11;69.36
1401;BME280;46518;48.842;8.926;2023-04-10T03:12:10;97668.31;;;5.17;69.05
1401;BME280;46518;48.842;8.926;2023-04-10T03:14:38;97650.84;;;5.18;68.35
1401;BME280;46518;48.842;8.926;2023-04-10T03:17:07;97671.28;;;4.94;69.21
1401;BME280;46518;48.842;8.926;2023-04-10T03:19:37;97656.63;;;5.00;69.34
1401;BME280;46518;48.842;8.926;2023-04-10T03:22:06;97651.81;;;4.97;69.20
1401;BME280;46518;48.842;8.926;2023-04-10T03:24:34;97652.44;;;5.06;69.27
1401;BME280;46518;48.842;8.926;2023-04-10T03:27:04;97660.47;;;5.04;68.72
1401;BME280;46518;48.842;8.926;2023-04-10T03:29:32;97662.25;;;4.97;68.78
1401;BME280;46518;48.842;8.926;2023-04-10T03:32:01;97657.47;;;5.07;69.61
1401;BME280;46518;48.842;8.926;2023-04-10T03:34:30;97630.53;;;4.87;70.26
1401;BME280;46518;48.842;8.926;2023-04-10T03:37:00;97632.31;;;4.93;70.22
1401;BME280;46518;48.842;8.926;2023-04-10T03:39:29;97633.34;;;4.92;69.70
1401;BME280;46518;48.842;8.926;2023-04-10T03:41:57;97651.38;;;4.93;69.60
1401;BME280;46518;48.842;8.926;2023-04-10T03:44:26;97647.22;;;5.06;69.22
1401;BME280;46518;48.842;8.926;2023-04-10T03:46:54;97644.97;;;4.96;69.86
1401;BME280;46518;48.842;8.926;2023-04-10T03:49:23;97642.59;;;5.01;70.07
1401;BME280;46518;48.842;8.926;2023-04-10T03:52:02;97636.38;;;5.02;69.69
1401;BME280;46518;48.842;8.926;2023-04-10T03:54:31;97639.59;;;5.04;69.82
1401;BME280;46518;48.842;8.926;2023-04-10T03:56:59;97632.97;;;5.08;70.18
1401;BME280;46518;48.842;8.926;2023-04-10T03:59:28;97624.16;;;5.09;69.97
1401;BME280;46518;48.842;8.926;2023-04-10T04:02:10;97629.97;;;5.18;70.04
1401;BME280;46518;48.842;8.926;2023-04-10T04:04:42;97621.16;;;5.26;70.49
1401;BME280;46518;48.842;8.926;2023-04-10T04:07:21;97625.41;;;5.40;70.36
1401;BME280;46518;48.842;8.926;2023-04-10T04:10:08;97605.31;;;5.34;70.51
1401;BME280;46518;48.842;8.926;2023-04-10T04:12:51;97604.53;;;5.27;71.10
1401;BME280;46518;48.842;8.926;2023-04-10T04:15:25;97617.34;;;5.41;72.02
1401;BME280;46518;48.842;8.926;2023-04-10T04:18:03;97586.81;;;5.15;72.40
1401;BME280;46518;48.842;8.926;2023-04-10T04:20:39;97612.97;;;5.42;72.81
1401;BME280;46518;48.842;8.926;2023-04-10T04:23:41;97600.28;;;5.26;72.40
1401;BME280;46518;48.842;8.926;2023-04-10T04:26:22;97617.56;;;5.40;72.41
1401;BME280;46518;48.842;8.926;2023-04-10T04:29:25;97617.19;;;5.50;72.19
1401;BME280;46518;48.842;8.926;2023-04-10T04:32:06;97628.63;;;5.49;71.36
1401;BME280;46518;48.842;8.926;2023-04-10T04:34:53;97617.97;;;5.50;71.78
1401;BME280;46518;48.842;8.926;2023-04-10T04:37:35;97616.19;;;5.57;71.06
1401;BME280;46518;48.842;8.926;2023-04-10T04:40:25;97621.19;;;5.59;70.96
1401;BME280;46518;48.842;8.926;2023-04-10T04:43:13;97623.41;;;5.69;70.69
1401;BME280;46518;48.842;8.926;2023-04-10T04:46:05;97621.38;;;5.84;69.57
1401;BME280;46518;48.842;8.926;2023-04-10T04:48:52;97622.00;;;5.93;69.94
1401;BME280;46518;48.842;8.926;2023-04-10T04:51:31;97626.84;;;6.02;69.42
1401;BME280;46518;48.842;8.926;2023-04-10T04:54:09;97629.66;;;6.01;69.21
1401;BME280;46518;48.842;8.926;2023-04-10T04:57:02;97639.66;;;5.84;69.12
1401;BME280;46518;48.842;8.926;2023-04-10T04:59:43;97637.47;;;5.88;68.67
1401;BME280;46518;48.842;8.926;2023-04-10T05:02:20;97642.28;;;5.84;68.74
1401;BME280;46518;48.842;8.926;2023-04-10T05:05:03;97644.28;;;5.55;69.65
1401;BME280;46518;48.842;8.926;2023-04-10T05:08:01;97642.06;;;5.39;70.65
1401;BME280;46518;48.842;8.926;2023-04-10T05:10:43;97649.09;;;5.38;71.29
1401;BME280;46518;48.842;8.926;2023-04-10T05:13:22;97648.69;;;5.48;70.66
1401;BME280;46518;48.842;8.926;2023-04-10T05:16:10;97646.47;;;5.38;71.51
1401;BME280;46518;48.842;8.926;2023-04-10T05:18:53;97647.91;;;5.54;71.24
1401;BME280;46518;48.842;8.926;2023-04-10T05:21:57;97641.31;;;5.72;71.21
1401;BME280;46518;48.842;8.926;2023-04-10T05:24:42;97638.69;;;5.98;70.30
1401;BME280;46518;48.842;8.926;2023-04-10T05:27:14;97641.69;;;6.15;69.90
1401;BME280;46518;48.842;8.926;2023-04-10T05:30:02;97645.69;;;6.24;69.85
1401;BME280;46518;48.842;8.926;2023-04-10T05:32:36;97641.50;;;6.17;68.92
1401;BME280;46518;48.842;8.926;2023-04-10T05:35:23;97634.41;;;6.31;68.84
1401;BME280;46518;48.842;8.926;2023-04-10T05:38:15;97635.03;;;6.26;68.26
1401;BME280;46518;48.842;8.926;2023-04-10T05:40:59;97639.66;;;6.24;68.68
1401;BME280;46518;48.842;8.926;2023-04-10T05:43:51;97646.72;;;6.17;67.61
1401;BME280;46518;48.842;8.926;2023-04-10T05:46:28;97652.16;;;5.95;68.15
1401;BME280;46518;48.842;8.926;2023-04-10T05:49:29;97654.53;;;5.50;70.88
1401;BME280;46518;48.842;8.926;2023-04-10T05:52:13;97652.31;;;5.60;71.34
1401;BME280;46518;48.842;8.926;2023-04-10T05:54:58;97656.38;;;5.90;69.87
1401;BME280;46518;48.842;8.926;2023-04-10T05:57:32;97653.75;;;5.83;70.70
1401;BME280;46518;48.842;8.926;2023-04-10T06:00:22;97647.72;;;5.82;71.04
1401;BME280;46518;48.842;8.926;2023-04-10T06:03:24;97658.34;;;5.81;70.43
1401;BME280;46518;48.842;8.926;2023-04-10T06:05:59;97652.53;;;5.66;70.66
1401;BME280;46518;48.842;8.926;2023-04-10T06:08:29;97655.56;;;5.96;70.97
1401;BME280;46518;48.842;8.926;2023-04-10T06:10:58;97660.38;;;6.19;70.39
1401;BME280;46518;48.842;8.926;2023-04-10T06:13:27;97656.53;;;6.35;69.17
1401;BME280;46518;48.842;8.926;2023-04-10T06:15:58;97654.69;;;6.48;68.77
1401;BME280;46518;48.842;8.926;2023-04-10T06:18:29;97646.63;;;6.57;68.90
1401;BME280;46518;48.842;8.926;2023-04-10T06:20:58;97655.28;;;6.57;68.68
1401;BME280;46518;48.842;8.926;2023-04-10T06:23:27;97651.44;;;6.53;68.20
1401;BME280;46518;48.842;8.926;2023-04-10T06:25:56;97649.81;;;6.59;69.18
1401;BME280;46518;48.842;8.926;2023-04-10T06:28:25;97645.19;;;6.61;68.80
1401;BME280;46518;48.842;8.926;2023-04-10T06:30:56;97651.56;;;6.78;68.66
1401;BME280;46518;48.842;8.926;2023-04-10T06:33:34;97646.91;;;6.87;66.84
1401;BME280;46518;48.842;8.926;2023-04-10T06:36:06;97644.66;;;6.97;67.23
1401;BME280;46518;48.842;8.926;2023-04-10T06:38:41;97643.97;;;6.70;66.58
1401;BME280;46518;48.842;8.926;2023-04-10T06:41:09;97646.06;;;7.00;66.60
1401;BME280;46518;48.842;8.926;2023-04-10T06:43:38;97639.50;;;7.22;65.36
1401;BME280;46518;48.842;8.926;2023-04-10T06:46:06;97637.69;;;7.16;64.94
1401;BME280;46518;48.842;8.926;2023-04-10T06:48:36;97637.13;;;7.46;64.20
1401;BME280;46518;48.842;8.926;2023-04-10T06:51:05;97632.69;;;7.46;64.14
1401;BME280;46518;48.842;8.926;2023-04-10T06:53:33;97627.38;;;6.89;63.99
1401;BME280;46518;48.842;8.926;2023-04-10T06:56:01;97629.53;;;7.38;64.57
1401;BME280;46518;48.842;8.926;2023-04-10T06:58:30;97617.09;;;7.58;63.94
1401;BME280;46518;48.842;8.926;2023-04-10T07:00:59;97621.22;;;7.41;63.33
1401;BME280;46518;48.842;8.926;2023-04-10T07:03:30;97627.94;;;7.37;63.65
1401;BME280;46518;48.842;8.926;2023-04-10T07:06:01;97624.56;;;7.80;63.04
1401;BME280;46518;48.842;8.926;2023-04-10T07:08:29;97622.03;;;8.16;62.39
1401;BME280;46518;48.842;8.926;2023-04-10T07:10:57;97620.06;;;8.30;61.00
1401;BME280;46518;48.842;8.926;2023-04-10T07:13:26;97614.34;;;8.40;59.91
1401;BME280;46518;48.842;8.926;2023-04-10T07:15:54;97621.09;;;8.66;59.64
1401;BME280;46518;48.842;8.926;2023-04-10T07:18:22;97622.94;;;8.47;58.78
1401;BME280;46518;48.842;8.926;2023-04-10T07:20:51;97620.97;;;8.42;60.56
1401;BME280;46518;48.842;8.926;2023-04-10T07:23:21;97617.69;;;8.47;58.80
1401;BME280;46518;48.842;8.926;2023-04-10T07:25:49;97614.94;;;8.42;57.56
1401;BME280;46518;48.842;8.926;2023-04-10T07:28:18;97621.00;;;8.17;57.78
1401;BME280;46518;48.842;8.926;2023-04-10T07:30:47;97616.56;;;8.18;59.34
1401;BME280;46518;48.842;8.926;2023-04-10T07:33:15;97622.09;;;8.28;59.20
1401;BME280;46518;48.842;8.926;2023-04-10T07:35:44;97624.13;;;8.51;58.05
1401;BME280;46518;48.842;8.926;2023-04-10T07:38:12;97626.53;;;8.28;58.56
1401;BME280;46518;48.842;8.926;2023-04-10T07:40:42;97619.31;;;8.23;57.48
1401;BME280;46518;48.842;8.926;2023-04-10T07:43:10;97622.34;;;8.45;56.51
1401;BME280;46518;48.842;8.926;2023-04-10T07:45:39;97626.06;;;8.56;56.21
1401;BME280;46518;48.842;8.926;2023-04-10T07:48:08;97623.97;;;8.64;56.36
1401;BME280;46518;48.842;8.926;2023-04-10T07:50:36;97627.66;;;8.75;54.96
1401;BME280;46518;48.842;8.926;2023-04-10T07:53:04;97616.66;;;9.15;53.73
1401;BME280;46518;48.842;8.926;2023-04-10T07:55:36;97617.84;;;9.01;53.44
1401;BME280;46518;48.842;8.926;2023-04-10T07:58:06;97614.66;;;8.99;54.50
1401;BME280;46518;48.842;8.926;2023-04-10T08:00:35;97607.91;;;9.03;52.63
1401;BME280;46518;48.842;8.926;2023-04-10T08:03:03;97613.47;;;9.25;54.50
1401;BME280;46518;48.842;8.926;2023-04-10T08:05:33;97610.84;;;9.25;52.69
1401;BME280;46518;48.842;8.926;2023-04-10T08:08:02;97615.91;;;9.38;53.88
1401;BME280;46518;48.842;8.926;2023-04-10T08:10:31;97604.75;;;9.55;53.15
1401;BME280;46518;48.842;8.926;2023-04-10T08:12:59;97611.75;;;9.72;53.18
1401;BME280;46518;48.842;8.926;2023-04-10T08:15:29;97609.25;;;9.89;51.26
1401;BME280;46518;48.842;8.926;2023-04-10T08:17:57;97601.69;;;9.93;52.81
1401;BME280;46518;48.842;8.926;2023-04-10T08:20:26;97614.03;;;9.92;52.09
1401;BME280;46518;48.842;8.926;2023-04-10T08:22:54;97605.34;;;10.51;52.94
1401;BME280;46518;48.842;8.926;2023-04-10T08:25:38;97608.38;;;10.71;51.97
1401;BME280;46518;48.842;8.926;2023-04-10T08:28:07;97608.72;;;11.04;52.25
1401;BME280;46518;48.842;8.926;2023-04-10T08:30:36;97611.44;;;11.09;50.91
1401;BME280;46518;48.842;8.926;2023-04-10T08:33:05;97604.47;;;11.31;51.09
1401;BME280;46518;48.842;8.926;2023-04-10T08:35:33;97598.81;;;11.56;50.84
1401;BME280;46518;48.842;8.926;2023-04-10T08:38:02;97598.19;;;11.66;50.06
1401;BME280;46518;48.842;8.926;2023-04-10T08:40:40;97597.41;;;11.20;49.07
1401;BME280;46518;48.842;8.926;2023-04-10T08:43:10;97606.03;;;10.87;50.53
1401;BME280;46518;48.842;8.926;2023-04-10T08:45:40;97591.81;;;11.16;50.29
1401;BME280;46518;48.842;8.926;2023-04-10T08:48:09;97595.91;;;11.24;48.14
1401;BME280;46518;48.842;8.926;2023-04-10T08:50:41;97601.63;;;11.66;49.01
1401;BME280;46518;48.842;8.926;2023-04-10T08:53:10;97601.22;;;11.41;48.37
1401;BME280;46518;48.842;8.926;2023-04-10T08:55:39;97603.09;;;11.29;46.84
1401;BME280;46518;48.842;8.926;2023-04-10T08:58:08;97596.72;;;11.25;45.54
1401;BME280;46518;48.842;8.926;2023-04-10T09:00:37;97594.66;;;11.43;43.48
1401;BME280;46518;48.842;8.926;2023-04-10T09:03:09;97601.97;;;11.25;44.38
1401;BME280;46518;48.842;8.926;2023-04-10T09:05:40;97594.97;;;11.47;45.06
1401;BME280;46518;48.842;8.926;2023-04-10T09:08:09;97589.72;;;11.64;44.53
1401;BME280;46518;48.842;8.926;2023-04-10T09:10:38;97590.53;;;11.98;43.08
1401;BME280;46518;48.842;8.926;2023-04-10T09:13:06;97590.53;;;11.98;42.12
1401;BME280;46518;48.842;8.926;2023-04-10T09:15:55;97587.72;;;11.71;41.93
1401;BME280;46518;48.842;8.926;2023-04-10T09:18:39;97581.53;;;12.16;42.42
1401;BME280;46518;48.842;8.926;2023-04-10T09:21:10;97572.88;;;12.21;41.60
1401;BME280;46518;48.842;8.926;2023-04-10T09:23:40;97565.56;;;12.50;41.56
1401;BME280;46518;48.842;8.926;2023-04-10T09:26:22;97563.50;;;11.91;41.01
1401;BME280;46518;48.842;8.926;2023-04-10T09:28:55;97563.00;;;12.11;41.62
1401;BME280;46518;48.842;8.926;2023-04-10T09:31:29;97554.94;;;12.01;42.88
1401;BME280;46518;48.842;8.926;2023-04-10T09:34:11;97543.97;;;12.09;42.40
1401;BME280;46518;48.842;8.926;2023-04-10T09:36:40;97538.94;;;12.29;40.85
1401;BME280;46518;48.842;8.926;2023-04-10T09:39:09;97541.56;;;12.73;40.99
1401;BME280;46518;48.842;8.926;2023-04-10T09:41:48;97534.63;;;12.94;40.85
1401;BME280;46518;48.842;8.926;2023-04-10T09:44:26;97541.00;;;12.99;38.81
1401;BME280;46518;48.842;8.926;2023-04-10T09:46:56;97532.78;;;12.95;40.13
1401;BME280;46518;48.842;8.926;2023-04-10T09:49:25;97520.50;;;13.11;40.41
1401;BME280;46518;48.842;8.926;2023-04-10T09:51:54;97533.88;;;12.99;38.29
1401;BME280;46518;48.842;8.926;2023-04-10T09:54:34;97522.06;;;13.07;38.48
1401;BME280;46518;48.842;8.926;2023-04-10T09:57:04;97514.63;;;13.04;40.75
1401;BME280;46518;48.842;8.926;2023-04-10T09:59:36;97517.41;;;13.19;40.96
1401;BME280;46518;48.842;8.926;2023-04-10T10:02:07;97508.06;;;13.38;39.65
1401;BME280;46518;48.842;8.926;2023-04-10T10:04:38;97500.41;;;13.79;40.10
1401;BME280;46518;48.842;8.926;2023-04-10T10:07:09;97500.47;;;13.95;40.47
1401;BME280;46518;48.842;8.926;2023-04-10T10:09:38;97496.41;;;13.77;38.95
1401;BME280;46518;48.842;8.926;2023-04-10T10:12:11;97488.19;;;13.68;38.32
1401;BME280;46518;48.842;8.926;2023-04-10T10:17:31;97480.78;;;14.28;38.65
1401;BME280;46518;48.842;8.926;2023-04-10T10:20:08;97478.97;;;14.44;36.92
1401;BME280;46518;48.842;8.926;2023-04-10T10:22:37;97474.00;;;14.58;36.89
1401;BME280;46518;48.842;8.926;2023-04-10T10:25:06;97472.47;;;14.93;36.75
1401;BME280;46518;48.842;8.926;2023-04-10T10:27:36;97457.63;;;15.07;37.49
1401;BME280;46518;48.842;8.926;2023-04-10T10:30:07;97462.91;;;15.48;37.21
1401;BME280;46518;48.842;8.926;2023-04-10T10:32:55;97458.41;;;15.07;36.53
1401;BME280;46518;48.842;8.926;2023-04-10T10:35:26;97452.56;;;14.90;37.21
1401;BME280;46518;48.842;8.926;2023-04-10T10:37:57;97454.44;;;14.95;35.86
1401;BME280;46518;48.842;8.926;2023-04-10T10:40:28;97457.34;;;15.34;37.51
1401;BME280;46518;48.842;8.926;2023-04-10T10:43:06;97448.34;;;14.94;34.96
1401;BME280;46518;48.842;8.926;2023-04-10T10:45:40;97441.44;;;15.19;37.43
1401;BME280;46518;48.842;8.926;2023-04-10T10:48:11;97449.94;;;15.05;35.04
1401;BME280;46518;48.842;8.926;2023-04-10T10:50:54;97447.00;;;14.76;34.87
1401;BME280;46518;48.842;8.926;2023-04-10T10:53:32;97436.94;;;14.99;37.87
1401;BME280;46518;48.842;8.926;2023-04-10T10:56:34;97439.34;;;15.10;35.61
1401;BME280;46518;48.842;8.926;2023-04-10T10:59:03;97431.63;;;15.09;34.41
1401;BME280;46518;48.842;8.926;2023-04-10T11:01:31;97432.41;;;15.25;34.88
1401;BME280;46518;48.842;8.926;2023-04-10T11:04:00;97428.16;;;15.34;34.92
1401;BME280;46518;48.842;8.926;2023-04-10T11:06:51;97431.88;;;15.38;33.71
1401;BME280;46518;48.842;8.926;2023-04-10T11:09:48;97420.66;;;15.77;34.50
1401;BME280;46518;48.842;8.926;2023-04-10T11:12:19;97414.94;;;16.09;32.79
1401;BME280;46518;48.842;8.926;2023-04-10T11:14:59;97417.19;;;16.36;31.26
1401;BME280;46518;48.842;8.926;2023-04-10T11:17:48;97409.69;;;16.49;31.61
1401;BME280;46518;48.842;8.926;2023-04-10T11:20:18;97409.34;;;16.60;31.88
1401;BME280;46518;48.842;8.926;2023-04-10T11:23:08;97410.91;;;16.61;31.46
1401;BME280;46518;48.842;8.926;2023-04-10T11:25:48;97414.25;;;16.43;29.29
1401;BME280;46518;48.842;8.926;2023-04-10T11:28:38;97407.09;;;16.38;31.92
1401;BME280;46518;48.842;8.926;2023-04-10T11:31:15;97408.47;;;16.70;32.70
1401;BME280;46518;48.842;8.926;2023-04-10T11:33:46;97407.66;;;16.70;30.90
1401;BME280;46518;48.842;8.926;2023-04-10T11:36:15;97399.22;;;16.97;31.43
1401;BME280;46518;48.842;8.926;2023-04-10T11:38:56;97395.59;;;17.17;30.79
1401;BME280;46518;48.842;8.926;2023-04-10T11:41:29;97390.59;;;16.81;28.09
1401;BME280;46518;48.842;8.926;2023-04-10T11:43:58;97394.59;;;17.13;28.93
1401;BME280;46518;48.842;8.926;2023-04-10T11:46:28;97382.50;;;17.25;27.14
1401;BME280;46518;48.842;8.926;2023-04-10T11:48:57;97383.38;;;17.45;29.51
1401;BME280;46518;48.842;8.926;2023-04-10T11:51:27;97375.44;;;17.40;28.99
1401;BME280;46518;48.842;8.926;2023-04-10T11:54:08;97362.13;;;17.40;27.01
1401;BME280;46518;48.842;8.926;2023-04-10T11:56:37;97350.13;;;17.42;27.06
1401;BME280;46518;48.842;8.926;2023-04-10T11:59:06;97345.09;;;17.41;28.62
1401;BME280;46518;48.842;8.926;2023-04-10T12:01:37;97350.00;;;17.29;26.54
1401;BME280;46518;48.842;8.926;2023-04-10T12:04:12;97346.13;;;17.45;27.53
1401;BME280;46518;48.842;8.926;2023-04-10T12:06:43;97339.88;;;17.55;27.35
1401;BME280;46518;48.842;8.926;2023-04-10T12:09:14;97341.09;;;17.86;27.06
1401;BME280;46518;48.842;8.926;2023-04-10T12:11:50;97334.19;;;18.23;27.85
1401;BME280;46518;48.842;8.926;2023-04-10T12:14:19;97334.31;;;18.32;28.28
1401;BME280;46518;48.842;8.926;2023-04-10T12:16:48;97342.13;;;17.66;27.18
1401;BME280;46518;48.842;8.926;2023-04-10T12:19:18;97336.63;;;17.82;26.23
1401;BME280;46518;48.842;8.926;2023-04-10T12:21:47;97326.28;;;17.99;26.75
1401;BME280;46518;48.842;8.926;2023-04-10T12:24:41;97327.94;;;17.71;27.21
1401;BME280;46518;48.842;8.926;2023-04-10T12:27:16;97323.34;;;17.58;24.32
1401;BME280;46518;48.842;8.926;2023-04-10T12:29:45;97324.19;;;17.72;27.33
1401;BME280;46518;48.842;8.926;2023-04-10T12:32:14;97328.66;;;17.77;26.60
1401;BME280;46518;48.842;8.926;2023-04-10T12:34:48;97320.50;;;17.92;27.88
1401;BME280;46518;48.842;8.926;2023-04-10T12:37:17;97316.38;;;17.38;25.49
1401;BME280;46518;48.842;8.926;2023-04-10T12:39:46;97313.16;;;17.41;26.37
1401;BME280;46518;48.842;8.926;2023-04-10T12:42:16;97309.78;;;17.54;26.19
1401;BME280;46518;48.842;8.926;2023-04-10T12:44:52;97311.72;;;17.73;26.78
1401;BME280;46518;48.842;8.926;2023-04-10T12:47:21;97305.72;;;18.05;27.19
1401;BME280;46518;48.842;8.926;2023-04-10T12:50:04;97309.94;;;18.06;25.55
1401;BME280;46518;48.842;8.926;2023-04-10T12:52:32;97299.78;;;17.89;25.65
1401;BME280;46518;48.842;8.926;2023-04-10T12:55:10;97303.09;;;18.19;26.66
1401;BME280;46518;48.842;8.926;2023-04-10T12:57:39;97297.75;;;18.70;27.59
1401;BME280;46518;48.842;8.926;2023-04-10T13:00:09;97291.03;;;18.40;27.47
1401;BME280;46518;48.842;8.926;2023-04-10T13:02:39;97289.41;;;18.06;26.08
1401;BME280;46518;48.842;8.926;2023-04-10T13:05:08;97291.09;;;17.83;25.32
1401;BME280;46518;48.842;8.926;2023-04-10T13:07:38;97285.19;;;18.05;27.96
1401;BME280;46518;48.842;8.926;2023-04-10T13:10:07;97272.28;;;18.13;26.67
1401;BME280;46518;48.842;8.926;2023-04-10T13:12:37;97277.53;;;18.50;28.36
1401;BME280;46518;48.842;8.926;2023-04-10T13:15:08;97273.34;;;18.11;26.69
1401;BME280;46518;48.842;8.926;2023-04-10T13:17:37;97260.72;;;17.84;25.06
1401;BME280;46518;48.842;8.926;2023-04-10T13:20:08;97265.25;;;18.03;26.52
1401;BME280;46518;48.842;8.926;2023-04-10T13:22:37;97269.63;;;18.45;29.25
1401;BME280;46518;48.842;8.926;2023-04-10T13:25:06;97269.56;;;18.50;26.26
1401;BME280;46518;48.842;8.926;2023-04-10T13:27:34;97270.31;;;18.37;27.03
1401;BME280;46518;48.842;8.926;2023-04-10T13:30:05;97267.16;;;18.49;26.19
1401;BME280;46518;48.842;8.926;2023-04-10T13:32:34;97256.63;;;18.58;25.24
1401;BME280;46518;48.842;8.926;2023-04-10T13:35:03;97234.41;;;18.48;27.89
1401;BME280;46518;48.842;8.926;2023-04-10T13:38:01;97236.97;;;18.53;28.17
1401;BME280;46518;48.842;8.926;2023-04-10T13:40:38;97240.47;;;18.68;26.75
1401;BME280;46518;48.842;8.926;2023-04-10T13:43:35;97218.69;;;18.47;25.04
1401;BME280;46518;48.842;8.926;2023-04-10T13:46:13;97201.09;;;18.32;25.30
1401;BME280;46518;48.842;8.926;2023-04-10T13:48:44;97218.97;;;17.99;24.73
1401;BME280;46518;48.842;8.926;2023-04-10T13:56:10;97230.69;;;17.79;27.02
1401;BME280;46518;48.842;8.926;2023-04-10T13:58:39;97223.13;;;17.67;25.28